sensor_id;sensor_type;location;lat;lon;timestamp;pressure;altitude;pressure_sealevel;temperature;humidity
41830;BME280;38614;43.472;23.936;2023-02-14T00:00:21;101810.41;;;-0.43;nan
41830;BME280;38614;43.472;23.936;2023-02-14T00:03:09;101814.19;;;-0.44;nan
41830;BME280;38614;43.472;23.936;2023-02-14T00:05:56;101812.94;;;-0.53;nan
41830;BME280;38614;43.472;23.936;2023-02-14T00:08:44;101762.22;;;-0.81;nan
41830;BME280;38614;43.472;23.936;2023-02-14T00:11:32;101818.00;;;-0.57;nan
41830;BME280;38614;43.472;23.936;2023-02-14T00:14:20;101811.84;;;-0.69;nan
41830;BME280;38614;43.472;23.936;2023-02-14T00:17:27;101805.56;;;-0.70;nan
41830;BME280;38614;43.472;23.936;2023-02-14T00:20:14;101780.13;;;-0.80;nan
41830;BME280;38614;43.472;23.936;2023-02-14T00:23:02;101795.53;;;-0.69;nan
41830;BME280;38614;43.472;23.936;2023-02-14T00:25:50;101787.31;;;-0.58;nan
41830;BME280;38614;43.472;23.936;2023-02-14T00:28:38;101785.13;;;-0.44;nan
41830;BME280;38614;43.472;23.936;2023-02-14T00:31:25;101779.38;;;-0.31;nan
41830;BME280;38614;43.472;23.936;2023-02-14T00:34:15;101760.09;;;-0.12;nan
41830;BME280;38614;43.472;23.936;2023-02-14T00:37:03;101787.91;;;0.28;nan
41830;BME280;38614;43.472;23.936;2023-02-14T00:39:51;101790.56;;;0.45;nan
41830;BME280;38614;43.472;23.936;2023-02-14T00:42:39;101785.16;;;0.67;nan
41830;BME280;38614;43.472;23.936;2023-02-14T00:45:27;101789.69;;;0.83;nan
41830;BME280;38614;43.472;23.936;2023-02-14T00:48:14;101798.91;;;0.82;nan
41830;BME280;38614;43.472;23.936;2023-02-14T00:51:03;101783.22;;;0.90;nan
41830;BME280;38614;43.472;23.936;2023-02-14T00:53:51;101791.38;;;0.90;nan
41830;BME280;38614;43.472;23.936;2023-02-14T00:56:39;101761.72;;;0.88;nan
41830;BME280;38614;43.472;23.936;2023-02-14T00:59:28;101790.41;;;1.01;nan
41830;BME280;38614;43.472;23.936;2023-02-14T01:02:16;101785.97;;;1.17;nan
41830;BME280;38614;43.472;23.936;2023-02-14T01:05:04;101780.97;;;1.08;nan
41830;BME280;38614;43.472;23.936;2023-02-14T01:07:52;101784.63;;;1.19;nan
41830;BME280;38614;43.472;23.936;2023-02-14T01:10:40;101777.91;;;1.27;nan
41830;BME280;38614;43.472;23.936;2023-02-14T01:13:28;101769.19;;;1.25;nan
41830;BME280;38614;43.472;23.936;2023-02-14T01:16:18;101762.44;;;1.32;nan
41830;BME280;38614;43.472;23.936;2023-02-14T01:19:06;101721.78;;;0.94;nan
41830;BME280;38614;43.472;23.936;2023-02-14T01:22:12;101761.19;;;1.13;nan
41830;BME280;38614;43.472;23.936;2023-02-14T01:25:00;101745.56;;;1.03;nan
41830;BME280;38614;43.472;23.936;2023-02-14T01:27:48;101709.69;;;0.84;nan
41830;BME280;38614;43.472;23.936;2023-02-14T01:30:36;101727.00;;;1.00;nan
41830;BME280;38614;43.472;23.936;2023-02-14T01:33:24;101723.44;;;1.00;nan
41830;BME280;38614;43.472;23.936;2023-02-14T01:36:26;101722.09;;;1.02;nan
41830;BME280;38614;43.472;23.936;2023-02-14T01:39:14;101706.63;;;1.03;nan
41830;BME280;38614;43.472;23.936;2023-02-14T01:42:04;101728.19;;;1.09;nan
41830;BME280;38614;43.472;23.936;2023-02-14T01:44:58;101724.63;;;1.09;nan
41830;BME280;38614;43.472;23.936;2023-02-14T01:47:50;101710.19;;;1.08;nan
41830;BME280;38614;43.472;23.936;2023-02-14T01:50:42;101672.41;;;0.85;nan
41830;BME280;38614;43.472;23.936;2023-02-14T01:53:31;101707.94;;;1.00;nan
41830;BME280;38614;43.472;23.936;2023-02-14T01:56:29;101710.25;;;0.87;nan
41830;BME280;38614;43.472;23.936;2023-02-14T01:59:24;101726.88;;;0.90;nan
41830;BME280;38614;43.472;23.936;2023-02-14T02:02:13;101715.97;;;0.85;nan
41830;BME280;38614;43.472;23.936;2023-02-14T02:05:01;101723.69;;;0.71;nan
41830;BME280;38614;43.472;23.936;2023-02-14T02:07:54;101719.03;;;0.67;nan
41830;BME280;38614;43.472;23.936;2023-02-14T02:10:46;101717.00;;;0.57;nan
41830;BME280;38614;43.472;23.936;2023-02-14T02:13:34;101707.22;;;0.56;nan
41830;BME280;38614;43.472;23.936;2023-02-14T02:28:50;101704.19;;;1.06;nan
41830;BME280;38614;43.472;23.936;2023-02-14T02:38:35;101684.97;;;0.91;nan
41830;BME280;38614;43.472;23.936;2023-02-14T02:41:47;101684.25;;;0.74;nan
41830;BME280;38614;43.472;23.936;2023-02-14T02:45:13;101692.28;;;0.59;nan
41830;BME280;38614;43.472;23.936;2023-02-14T02:48:09;101687.56;;;0.54;nan
41830;BME280;38614;43.472;23.936;2023-02-14T02:51:06;101662.34;;;0.37;nan
41830;BME280;38614;43.472;23.936;2023-02-14T02:54:28;101671.03;;;0.34;nan
41830;BME280;38614;43.472;23.936;2023-02-14T02:57:22;101677.53;;;0.33;nan
41830;BME280;38614;43.472;23.936;2023-02-14T03:00:15;101684.38;;;0.35;nan
41830;BME280;38614;43.472;23.936;2023-02-14T03:03:04;101673.44;;;0.30;nan
41830;BME280;38614;43.472;23.936;2023-02-14T03:06:11;101679.13;;;0.28;nan
41830;BME280;38614;43.472;23.936;2023-02-14T03:15:57;101674.34;;;0.63;nan
41830;BME280;38614;43.472;23.936;2023-02-14T03:19:24;101669.22;;;0.66;nan
41830;BME280;38614;43.472;23.936;2023-02-14T03:35:41;101650.53;;;0.48;nan
41830;BME280;38614;43.472;23.936;2023-02-14T03:38:34;101656.91;;;0.37;nan
41830;BME280;38614;43.472;23.936;2023-02-14T03:41:26;101626.19;;;0.14;nan
41830;BME280;38614;43.472;23.936;2023-02-14T03:44:20;101646.56;;;0.34;nan
41830;BME280;38614;43.472;23.936;2023-02-14T03:47:15;101658.94;;;0.24;nan
41830;BME280;38614;43.472;23.936;2023-02-14T03:50:17;101646.94;;;0.20;nan
41830;BME280;38614;43.472;23.936;2023-02-14T03:53:06;101616.28;;;0.03;nan
41830;BME280;38614;43.472;23.936;2023-02-14T03:58:55;101621.44;;;0.26;nan
41830;BME280;38614;43.472;23.936;2023-02-14T04:01:46;101630.56;;;0.15;nan
41830;BME280;38614;43.472;23.936;2023-02-14T04:04:38;101631.56;;;0.09;nan
41830;BME280;38614;43.472;23.936;2023-02-14T04:07:28;101632.03;;;0.01;nan
41830;BME280;38614;43.472;23.936;2023-02-14T04:10:17;101628.16;;;-0.03;nan
41830;BME280;38614;43.472;23.936;2023-02-14T04:13:05;101618.94;;;-0.02;nan
41830;BME280;38614;43.472;23.936;2023-02-14T04:15:53;101641.00;;;0.02;nan
41830;BME280;38614;43.472;23.936;2023-02-14T04:18:41;101634.97;;;-0.01;nan
41830;BME280;38614;43.472;23.936;2023-02-14T04:21:50;101636.31;;;-0.03;nan
41830;BME280;38614;43.472;23.936;2023-02-14T04:24:38;101603.56;;;-0.13;nan
41830;BME280;38614;43.472;23.936;2023-02-14T04:27:26;101630.63;;;-0.02;nan
41830;BME280;38614;43.472;23.936;2023-02-14T04:33:04;101628.16;;;-0.03;nan
41830;BME280;38614;43.472;23.936;2023-02-14T04:35:54;101627.41;;;0.02;nan
41830;BME280;38614;43.472;23.936;2023-02-14T04:38:42;101634.53;;;0.08;nan
41830;BME280;38614;43.472;23.936;2023-02-14T04:41:32;101647.25;;;0.02;nan
41830;BME280;38614;43.472;23.936;2023-02-14T04:44:20;101631.56;;;-0.13;nan
41830;BME280;38614;43.472;23.936;2023-02-14T04:47:08;101634.53;;;-0.14;nan
41830;BME280;38614;43.472;23.936;2023-02-14T04:49:56;101636.13;;;-0.18;nan
41830;BME280;38614;43.472;23.936;2023-02-14T04:52:44;101624.63;;;-0.25;nan
41830;BME280;38614;43.472;23.936;2023-02-14T04:55:31;101629.34;;;-0.16;nan
41830;BME280;38614;43.472;23.936;2023-02-14T04:58:19;101625.88;;;-0.11;nan
41830;BME280;38614;43.472;23.936;2023-02-14T05:01:07;101619.97;;;-0.08;nan
41830;BME280;38614;43.472;23.936;2023-02-14T05:03:55;101610.00;;;-0.19;nan
41830;BME280;38614;43.472;23.936;2023-02-14T05:06:43;101625.25;;;-0.18;nan
41830;BME280;38614;43.472;23.936;2023-02-14T05:09:31;101623.59;;;-0.19;nan
41830;BME280;38614;43.472;23.936;2023-02-14T05:12:19;101619.50;;;-0.22;nan
41830;BME280;38614;43.472;23.936;2023-02-14T05:15:09;101580.63;;;-0.22;nan
41830;BME280;38614;43.472;23.936;2023-02-14T05:17:57;101620.38;;;0.06;nan
41830;BME280;38614;43.472;23.936;2023-02-14T05:20:49;101616.66;;;0.12;nan
41830;BME280;38614;43.472;23.936;2023-02-14T05:23:38;101614.25;;;0.15;nan
41830;BME280;38614;43.472;23.936;2023-02-14T05:26:27;101594.22;;;-0.01;nan
41830;BME280;38614;43.472;23.936;2023-02-14T05:29:15;101627.28;;;0.13;nan
41830;BME280;38614;43.472;23.936;2023-02-14T05:32:03;101600.28;;;0.07;nan
41830;BME280;38614;43.472;23.936;2023-02-14T05:34:51;101622.84;;;0.07;nan
41830;BME280;38614;43.472;23.936;2023-02-14T05:37:38;101621.66;;;-0.02;nan
41830;BME280;38614;43.472;23.936;2023-02-14T05:40:26;101637.91;;;-0.07;nan
41830;BME280;38614;43.472;23.936;2023-02-14T05:43:15;101635.50;;;-0.04;nan
41830;BME280;38614;43.472;23.936;2023-02-14T05:46:02;101633.41;;;-0.18;nan
41830;BME280;38614;43.472;23.936;2023-02-14T05:48:51;101615.00;;;-0.33;nan
41830;BME280;38614;43.472;23.936;2023-02-14T05:51:39;101641.72;;;-0.25;nan
41830;BME280;38614;43.472;23.936;2023-02-14T05:54:26;101655.22;;;-0.30;nan
41830;BME280;38614;43.472;23.936;2023-02-14T05:57:14;101656.13;;;-0.24;nan
41830;BME280;38614;43.472;23.936;2023-02-14T06:00:05;101645.56;;;-0.21;nan
41830;BME280;38614;43.472;23.936;2023-02-14T06:02:58;101654.13;;;-0.12;nan
41830;BME280;38614;43.472;23.936;2023-02-14T06:05:45;101645.78;;;-0.06;nan
41830;BME280;38614;43.472;23.936;2023-02-14T06:08:33;101641.09;;;-0.10;nan
41830;BME280;38614;43.472;23.936;2023-02-14T06:11:21;101652.69;;;0.02;nan
41830;BME280;38614;43.472;23.936;2023-02-14T06:14:08;101650.03;;;0.29;nan
41830;BME280;38614;43.472;23.936;2023-02-14T06:16:56;101604.41;;;0.36;nan
41830;BME280;38614;43.472;23.936;2023-02-14T06:19:44;101634.69;;;0.94;nan
41830;BME280;38614;43.472;23.936;2023-02-14T06:22:32;101627.06;;;1.75;nan
41830;BME280;38614;43.472;23.936;2023-02-14T06:25:20;101612.66;;;2.42;nan
41830;BME280;38614;43.472;23.936;2023-02-14T06:28:08;101606.41;;;2.67;nan
41830;BME280;38614;43.472;23.936;2023-02-14T06:30:56;101631.25;;;2.66;nan
41830;BME280;38614;43.472;23.936;2023-02-14T06:33:44;101627.22;;;1.95;nan
41830;BME280;38614;43.472;23.936;2023-02-14T06:36:32;101639.88;;;1.75;nan
41830;BME280;38614;43.472;23.936;2023-02-14T06:39:19;101639.34;;;1.73;nan
41830;BME280;38614;43.472;23.936;2023-02-14T06:42:07;101636.94;;;1.81;nan
41830;BME280;38614;43.472;23.936;2023-02-14T06:44:55;101638.03;;;1.80;nan
41830;BME280;38614;43.472;23.936;2023-02-14T06:47:44;101616.75;;;1.77;nan
41830;BME280;38614;43.472;23.936;2023-02-14T06:50:31;101637.25;;;1.90;nan
41830;BME280;38614;43.472;23.936;2023-02-14T06:53:20;101621.34;;;2.24;nan
41830;BME280;38614;43.472;23.936;2023-02-14T06:56:07;101625.28;;;3.14;nan
41830;BME280;38614;43.472;23.936;2023-02-14T06:58:55;101642.19;;;3.72;nan
41830;BME280;38614;43.472;23.936;2023-02-14T07:01:43;101623.88;;;3.73;nan
41830;BME280;38614;43.472;23.936;2023-02-14T07:04:31;101640.72;;;4.11;nan
41830;BME280;38614;43.472;23.936;2023-02-14T07:07:18;101638.47;;;4.23;nan
41830;BME280;38614;43.472;23.936;2023-02-14T07:10:06;101632.66;;;4.35;nan
41830;BME280;38614;43.472;23.936;2023-02-14T07:12:54;101652.59;;;4.45;nan
41830;BME280;38614;43.472;23.936;2023-02-14T07:15:42;101637.03;;;4.36;nan
41830;BME280;38614;43.472;23.936;2023-02-14T07:18:29;101609.72;;;4.25;nan
41830;BME280;38614;43.472;23.936;2023-02-14T07:21:17;101650.56;;;4.66;nan
41830;BME280;38614;43.472;23.936;2023-02-14T07:24:05;101659.47;;;4.87;nan
41830;BME280;38614;43.472;23.936;2023-02-14T07:26:52;101658.00;;;5.00;nan
41830;BME280;38614;43.472;23.936;2023-02-14T07:29:40;101649.28;;;4.98;nan
41830;BME280;38614;43.472;23.936;2023-02-14T07:32:28;101642.09;;;5.02;nan
41830;BME280;38614;43.472;23.936;2023-02-14T07:35:21;101640.53;;;4.91;nan
41830;BME280;38614;43.472;23.936;2023-02-14T07:38:11;101661.94;;;4.89;nan
41830;BME280;38614;43.472;23.936;2023-02-14T07:40:59;101664.22;;;4.71;nan
41830;BME280;38614;43.472;23.936;2023-02-14T07:43:47;101667.72;;;4.82;nan
41830;BME280;38614;43.472;23.936;2023-02-14T07:46:35;101681.91;;;4.89;nan
41830;BME280;38614;43.472;23.936;2023-02-14T07:49:22;101634.91;;;4.77;nan
41830;BME280;38614;43.472;23.936;2023-02-14T07:52:10;101659.72;;;4.91;nan
41830;BME280;38614;43.472;23.936;2023-02-14T07:54:58;101664.13;;;4.86;nan
41830;BME280;38614;43.472;23.936;2023-02-14T07:57:48;101666.75;;;5.02;nan
41830;BME280;38614;43.472;23.936;2023-02-14T08:00:36;101642.19;;;4.92;nan
41830;BME280;38614;43.472;23.936;2023-02-14T08:03:24;101662.47;;;4.91;nan
41830;BME280;38614;43.472;23.936;2023-02-14T08:06:12;101666.72;;;5.12;nan
41830;BME280;38614;43.472;23.936;2023-02-14T08:08:59;101661.59;;;5.34;nan
41830;BME280;38614;43.472;23.936;2023-02-14T08:11:47;101663.91;;;5.22;nan
41830;BME280;38614;43.472;23.936;2023-02-14T08:14:53;101655.09;;;5.83;nan
41830;BME280;38614;43.472;23.936;2023-02-14T08:17:41;101671.63;;;5.78;nan
41830;BME280;38614;43.472;23.936;2023-02-14T08:20:28;101674.88;;;5.80;nan
41830;BME280;38614;43.472;23.936;2023-02-14T08:23:17;101676.59;;;6.05;nan
41830;BME280;38614;43.472;23.936;2023-02-14T08:26:06;101666.47;;;6.00;nan
41830;BME280;38614;43.472;23.936;2023-02-14T08:28:54;101651.28;;;6.08;nan
41830;BME280;38614;43.472;23.936;2023-02-14T08:31:42;101653.84;;;6.23;nan
41830;BME280;38614;43.472;23.936;2023-02-14T08:34:29;101663.47;;;6.45;nan
41830;BME280;38614;43.472;23.936;2023-02-14T08:37:17;101662.72;;;6.58;nan
41830;BME280;38614;43.472;23.936;2023-02-14T08:40:05;101645.25;;;6.73;nan
41830;BME280;38614;43.472;23.936;2023-02-14T08:42:53;101649.25;;;6.80;nan
41830;BME280;38614;43.472;23.936;2023-02-14T08:45:41;101653.06;;;6.61;nan
41830;BME280;38614;43.472;23.936;2023-02-14T08:48:29;101640.53;;;6.54;nan
41830;BME280;38614;43.472;23.936;2023-02-14T08:51:17;101663.88;;;6.95;nan
41830;BME280;38614;43.472;23.936;2023-02-14T08:54:05;101653.03;;;6.84;nan
41830;BME280;38614;43.472;23.936;2023-02-14T08:56:52;101653.31;;;7.02;nan
41830;BME280;38614;43.472;23.936;2023-02-14T08:59:40;101650.13;;;6.95;nan
41830;BME280;38614;43.472;23.936;2023-02-14T09:02:28;101602.59;;;6.75;nan
41830;BME280;38614;43.472;23.936;2023-02-14T09:05:16;101620.41;;;6.97;nan
41830;BME280;38614;43.472;23.936;2023-02-14T09:08:03;101652.50;;;7.01;nan
41830;BME280;38614;43.472;23.936;2023-02-14T09:10:51;101646.59;;;7.27;nan
41830;BME280;38614;43.472;23.936;2023-02-14T09:13:40;101646.63;;;7.40;nan
41830;BME280;38614;43.472;23.936;2023-02-14T09:16:28;101653.34;;;7.34;nan
41830;BME280;38614;43.472;23.936;2023-02-14T09:19:19;101657.16;;;7.20;nan
41830;BME280;38614;43.472;23.936;2023-02-14T09:22:08;101634.75;;;7.59;nan
41830;BME280;38614;43.472;23.936;2023-02-14T09:24:56;101609.47;;;7.43;nan
41830;BME280;38614;43.472;23.936;2023-02-14T09:27:44;101650.59;;;7.34;nan
41830;BME280;38614;43.472;23.936;2023-02-14T09:30:31;101668.34;;;7.42;nan
41830;BME280;38614;43.472;23.936;2023-02-14T09:33:19;101664.81;;;7.23;nan
41830;BME280;38614;43.472;23.936;2023-02-14T09:36:07;101646.88;;;6.93;nan
41830;BME280;38614;43.472;23.936;2023-02-14T09:39:14;101656.13;;;6.59;nan
41830;BME280;38614;43.472;23.936;2023-02-14T09:45:18;101653.81;;;6.47;nan
41830;BME280;38614;43.472;23.936;2023-02-14T09:51:13;101648.97;;;6.39;nan
41830;BME280;38614;43.472;23.936;2023-02-14T09:54:10;101646.03;;;6.54;nan
41830;BME280;38614;43.472;23.936;2023-02-14T10:06:39;101631.94;;;6.18;nan
41830;BME280;38614;43.472;23.936;2023-02-14T10:19:43;101600.16;;;6.55;nan
41830;BME280;38614;43.472;23.936;2023-02-14T10:22:50;101596.44;;;6.46;nan
41830;BME280;38614;43.472;23.936;2023-02-14T10:26:11;101601.50;;;6.57;nan
41830;BME280;38614;43.472;23.936;2023-02-14T10:28:57;101591.66;;;6.33;nan
41830;BME280;38614;43.472;23.936;2023-02-14T10:31:58;101608.00;;;6.24;nan
41830;BME280;38614;43.472;23.936;2023-02-14T10:34:49;101594.03;;;6.20;nan
41830;BME280;38614;43.472;23.936;2023-02-14T10:37:49;101603.75;;;6.13;nan
41830;BME280;38614;43.472;23.936;2023-02-14T10:41:04;101598.03;;;6.09;nan
41830;BME280;38614;43.472;23.936;2023-02-14T10:49:49;101580.88;;;5.98;nan
41830;BME280;38614;43.472;23.936;2023-02-14T10:56:04;101574.44;;;6.08;nan
41830;BME280;38614;43.472;23.936;2023-02-14T10:58:55;101576.41;;;6.26;nan
41830;BME280;38614;43.472;23.936;2023-02-14T11:01:44;101564.81;;;6.29;nan
41830;BME280;38614;43.472;23.936;2023-02-14T11:04:34;101554.50;;;6.21;nan
41830;BME280;38614;43.472;23.936;2023-02-14T11:07:22;101558.00;;;6.27;nan
41830;BME280;38614;43.472;23.936;2023-02-14T11:10:11;101564.97;;;6.38;nan
41830;BME280;38614;43.472;23.936;2023-02-14T11:13:00;101569.75;;;6.51;nan
41830;BME280;38614;43.472;23.936;2023-02-14T11:15:48;101559.94;;;6.64;nan
41830;BME280;38614;43.472;23.936;2023-02-14T11:18:39;101551.00;;;6.72;nan
41830;BME280;38614;43.472;23.936;2023-02-14T11:21:36;101518.13;;;6.67;nan
41830;BME280;38614;43.472;23.936;2023-02-14T11:24:28;101541.69;;;6.87;nan
41830;BME280;38614;43.472;23.936;2023-02-14T11:27:16;101549.22;;;7.14;nan
41830;BME280;38614;43.472;23.936;2023-02-14T11:30:16;101548.16;;;7.56;nan
41830;BME280;38614;43.472;23.936;2023-02-14T11:33:06;101533.66;;;7.23;nan
41830;BME280;38614;43.472;23.936;2023-02-14T11:35:57;101538.31;;;7.09;nan
41830;BME280;38614;43.472;23.936;2023-02-14T11:38:54;101531.13;;;6.94;nan
41830;BME280;38614;43.472;23.936;2023-02-14T11:41:54;101526.06;;;7.01;nan
41830;BME280;38614;43.472;23.936;2023-02-14T11:44:54;101517.94;;;6.77;nan
41830;BME280;38614;43.472;23.936;2023-02-14T11:47:42;101517.31;;;6.67;nan
41830;BME280;38614;43.472;23.936;2023-02-14T11:50:33;101502.31;;;6.59;nan
41830;BME280;38614;43.472;23.936;2023-02-14T11:53:26;101494.69;;;6.56;nan
41830;BME280;38614;43.472;23.936;2023-02-14T11:56:17;101518.25;;;6.76;nan
41830;BME280;38614;43.472;23.936;2023-02-14T11:59:05;101512.56;;;6.72;nan
41830;BME280;38614;43.472;23.936;2023-02-14T12:01:55;101478.78;;;6.72;nan
41830;BME280;38614;43.472;23.936;2023-02-14T12:04:45;101503.28;;;7.01;nan
41830;BME280;38614;43.472;23.936;2023-02-14T12:07:36;101515.09;;;7.15;nan
41830;BME280;38614;43.472;23.936;2023-02-14T12:10:27;101516.66;;;7.21;nan
41830;BME280;38614;43.472;23.936;2023-02-14T12:16:03;101501.28;;;7.20;nan
41830;BME280;38614;43.472;23.936;2023-02-14T12:18:58;101493.53;;;7.22;nan
41830;BME280;38614;43.472;23.936;2023-02-14T12:21:58;101484.16;;;7.09;nan
41830;BME280;38614;43.472;23.936;2023-02-14T12:24:58;101492.03;;;6.97;nan
41830;BME280;38614;43.472;23.936;2023-02-14T12:28:03;101488.22;;;6.98;nan
41830;BME280;38614;43.472;23.936;2023-02-14T12:30:53;101500.13;;;7.07;nan
41830;BME280;38614;43.472;23.936;2023-02-14T12:33:41;101475.19;;;7.04;nan
41830;BME280;38614;43.472;23.936;2023-02-14T12:40:15;101440.69;;;6.65;nan
41830;BME280;38614;43.472;23.936;2023-02-14T12:46:49;101483.31;;;6.63;nan
41830;BME280;38614;43.472;23.936;2023-02-14T12:56:22;101488.00;;;6.62;nan
41830;BME280;38614;43.472;23.936;2023-02-14T12:59:29;101494.00;;;6.64;nan
41830;BME280;38614;43.472;23.936;2023-02-14T13:17:49;101501.34;;;6.69;nan
41830;BME280;38614;43.472;23.936;2023-02-14T13:20:41;101494.72;;;6.70;nan
41830;BME280;38614;43.472;23.936;2023-02-14T13:26:32;101485.03;;;6.58;nan
41830;BME280;38614;43.472;23.936;2023-02-14T13:29:24;101458.22;;;6.50;nan
41830;BME280;38614;43.472;23.936;2023-02-14T13:32:17;101483.22;;;6.68;nan
41830;BME280;38614;43.472;23.936;2023-02-14T13:35:07;101471.41;;;6.67;nan
41830;BME280;38614;43.472;23.936;2023-02-14T13:38:04;101473.03;;;6.68;nan
41830;BME280;38614;43.472;23.936;2023-02-14T13:40:54;101477.97;;;6.71;nan
41830;BME280;38614;43.472;23.936;2023-02-14T13:49:33;101433.75;;;6.54;nan
41830;BME280;38614;43.472;23.936;2023-02-14T13:52:44;101453.00;;;6.68;nan
41830;BME280;38614;43.472;23.936;2023-02-14T13:55:34;101440.69;;;6.65;nan
41830;BME280;38614;43.472;23.936;2023-02-14T13:58:23;101444.06;;;6.76;nan
41830;BME280;38614;43.472;23.936;2023-02-14T14:01:33;101454.06;;;6.85;nan
41830;BME280;38614;43.472;23.936;2023-02-14T14:10:04;101449.56;;;6.76;nan
41830;BME280;38614;43.472;23.936;2023-02-14T14:12:52;101446.81;;;6.76;nan
41830;BME280;38614;43.472;23.936;2023-02-14T14:22:12;101427.34;;;6.58;nan
41830;BME280;38614;43.472;23.936;2023-02-14T14:25:04;101445.13;;;6.80;nan
41830;BME280;38614;43.472;23.936;2023-02-14T14:27:53;101431.88;;;6.82;nan
41830;BME280;38614;43.472;23.936;2023-02-14T14:30:42;101444.81;;;6.95;nan
41830;BME280;38614;43.472;23.936;2023-02-14T14:33:33;101449.63;;;7.03;nan
41830;BME280;38614;43.472;23.936;2023-02-14T14:36:22;101447.09;;;7.21;nan
41830;BME280;38614;43.472;23.936;2023-02-14T14:39:10;101456.25;;;7.16;nan
41830;BME280;38614;43.472;23.936;2023-02-14T14:42:08;101435.25;;;7.06;nan
41830;BME280;38614;43.472;23.936;2023-02-14T14:45:03;101366.22;;;6.67;nan
41830;BME280;38614;43.472;23.936;2023-02-14T14:47:52;101437.94;;;7.11;nan
41830;BME280;38614;43.472;23.936;2023-02-14T14:50:43;101438.94;;;7.02;nan
41830;BME280;38614;43.472;23.936;2023-02-14T14:53:44;101432.63;;;7.01;nan
41830;BME280;38614;43.472;23.936;2023-02-14T14:56:36;101436.59;;;6.95;nan
41830;BME280;38614;43.472;23.936;2023-02-14T14:59:34;101435.16;;;6.84;nan
41830;BME280;38614;43.472;23.936;2023-02-14T15:02:24;101441.03;;;6.77;nan
41830;BME280;38614;43.472;23.936;2023-02-14T15:05:23;101436.63;;;6.63;nan
41830;BME280;38614;43.472;23.936;2023-02-14T15:11:20;101425.78;;;6.20;nan
41830;BME280;38614;43.472;23.936;2023-02-14T15:14:29;101423.81;;;6.07;nan
41830;BME280;38614;43.472;23.936;2023-02-14T15:17:21;101445.97;;;6.10;nan
41830;BME280;38614;43.472;23.936;2023-02-14T15:20:18;101436.47;;;6.03;nan
41830;BME280;38614;43.472;23.936;2023-02-14T15:23:24;101451.97;;;5.93;nan
41830;BME280;38614;43.472;23.936;2023-02-14T15:26:17;101459.19;;;5.84;nan
41830;BME280;38614;43.472;23.936;2023-02-14T15:29:39;101455.78;;;5.73;nan
41830;BME280;38614;43.472;23.936;2023-02-14T15:32:30;101455.28;;;5.71;nan
41830;BME280;38614;43.472;23.936;2023-02-14T15:35:26;101450.78;;;5.57;nan
41830;BME280;38614;43.472;23.936;2023-02-14T15:38:15;101404.91;;;5.20;nan
41830;BME280;38614;43.472;23.936;2023-02-14T15:41:04;101450.69;;;5.43;nan
41830;BME280;38614;43.472;23.936;2023-02-14T15:43:53;101446.16;;;5.33;nan
41830;BME280;38614;43.472;23.936;2023-02-14T15:46:41;101459.78;;;5.38;nan
41830;BME280;38614;43.472;23.936;2023-02-14T15:49:33;101452.78;;;5.27;nan
41830;BME280;38614;43.472;23.936;2023-02-14T15:52:23;101461.25;;;5.07;nan
41830;BME280;38614;43.472;23.936;2023-02-14T15:55:18;101450.63;;;5.00;nan
41830;BME280;38614;43.472;23.936;2023-02-14T15:58:25;101457.91;;;4.86;nan
41830;BME280;38614;43.472;23.936;2023-02-14T16:01:19;101442.41;;;4.71;nan
41830;BME280;38614;43.472;23.936;2023-02-14T16:04:08;101443.19;;;4.77;nan
41830;BME280;38614;43.472;23.936;2023-02-14T16:10:29;101460.19;;;4.74;nan
41830;BME280;38614;43.472;23.936;2023-02-14T16:13:34;101451.59;;;4.56;nan
41830;BME280;38614;43.472;23.936;2023-02-14T16:17:01;101470.28;;;4.44;nan
41830;BME280;38614;43.472;23.936;2023-02-14T16:20:38;101480.94;;;4.46;nan
41830;BME280;38614;43.472;23.936;2023-02-14T16:23:42;101482.94;;;4.40;nan
41830;BME280;38614;43.472;23.936;2023-02-14T16:26:39;101480.22;;;4.35;nan
41830;BME280;38614;43.472;23.936;2023-02-14T16:29:47;101450.66;;;3.98;nan
41830;BME280;38614;43.472;23.936;2023-02-14T16:33:15;101481.69;;;4.22;nan
41830;BME280;38614;43.472;23.936;2023-02-14T16:36:25;101467.59;;;4.00;nan
41830;BME280;38614;43.472;23.936;2023-02-14T16:39:19;101455.38;;;3.87;nan
41830;BME280;38614;43.472;23.936;2023-02-14T16:43:20;101483.81;;;3.91;nan
41830;BME280;38614;43.472;23.936;2023-02-14T16:46:13;101495.31;;;3.83;nan
41830;BME280;38614;43.472;23.936;2023-02-14T16:49:04;101489.91;;;3.73;nan
41830;BME280;38614;43.472;23.936;2023-02-14T16:51:54;101494.84;;;3.66;nan
41830;BME280;38614;43.472;23.936;2023-02-14T16:54:43;101505.00;;;3.50;nan
41830;BME280;38614;43.472;23.936;2023-02-14T16:57:34;101503.38;;;3.44;nan
41830;BME280;38614;43.472;23.936;2023-02-14T17:00:24;101502.56;;;3.49;nan
41830;BME280;38614;43.472;23.936;2023-02-14T17:03:18;101495.50;;;3.37;nan
41830;BME280;38614;43.472;23.936;2023-02-14T17:06:10;101504.53;;;3.28;nan
41830;BME280;38614;43.472;23.936;2023-02-14T17:09:05;101513.59;;;3.18;nan
41830;BME280;38614;43.472;23.936;2023-02-14T17:12:00;101509.22;;;2.97;nan
41830;BME280;38614;43.472;23.936;2023-02-14T17:14:53;101505.72;;;2.81;nan
41830;BME280;38614;43.472;23.936;2023-02-14T17:17:43;101516.63;;;2.86;nan
41830;BME280;38614;43.472;23.936;2023-02-14T17:20:35;101486.88;;;2.54;nan
41830;BME280;38614;43.472;23.936;2023-02-14T17:23:23;101522.91;;;2.56;nan
41830;BME280;38614;43.472;23.936;2023-02-14T17:26:11;101501.56;;;2.33;nan
41830;BME280;38614;43.472;23.936;2023-02-14T17:29:03;101523.97;;;2.50;nan
41830;BME280;38614;43.472;23.936;2023-02-14T17:31:53;101537.06;;;2.38;nan
41830;BME280;38614;43.472;23.936;2023-02-14T17:34:41;101531.06;;;2.36;nan
41830;BME280;38614;43.472;23.936;2023-02-14T17:37:31;101517.91;;;2.12;nan
41830;BME280;38614;43.472;23.936;2023-02-14T17:40:19;101537.84;;;2.18;nan
41830;BME280;38614;43.472;23.936;2023-02-14T17:43:07;101526.38;;;2.11;nan